sensor_id;sensor_type;location;lat;lon;timestamp;P1;durP1;ratioP1;P2;durP2;ratioP2
9100;SDS011;4586;52.518;13.486;2022-07-23T00:02:47;2.63;;;2.28;;
9100;SDS011;4586;52.518;13.486;2022-07-23T00:06:48;2.80;;;1.95;;
9100;SDS011;4586;52.518;13.486;2022-07-23T00:10:49;2.70;;;2.08;;
9100;SDS011;4586;52.518;13.486;2022-07-23T00:14:50;3.28;;;2.13;;
9100;SDS011;4586;52.518;13.486;2022-07-23T00:18:51;2.53;;;2.20;;
9100;SDS011;4586;52.518;13.486;2022-07-23T00:22:52;1.90;;;1.70;;
9100;SDS011;4586;52.518;13.486;2022-07-23T00:26:53;2.63;;;1.95;;
9100;SDS011;4586;52.518;13.486;2022-07-23T00:30:55;3.85;;;1.98;;
9100;SDS011;4586;52.518;13.486;2022-07-23T00:34:55;2.50;;;2.10;;
9100;SDS011;4586;52.518;13.486;2022-07-23T00:38:56;3.30;;;2.03;;
9100;SDS011;4586;52.518;13.486;2022-07-23T00:42:58;2.28;;;2.08;;
9100;SDS011;4586;52.518;13.486;2022-07-23T00:46:59;4.10;;;2.28;;
9100;SDS011;4586;52.518;13.486;2022-07-23T00:51:00;2.92;;;1.80;;
9100;SDS011;4586;52.518;13.486;2022-07-23T00:55:01;2.97;;;2.20;;
9100;SDS011;4586;52.518;13.486;2022-07-23T00:59:02;3.08;;;2.25;;
9100;SDS011;4586;52.518;13.486;2022-07-23T01:03:03;2.88;;;2.25;;
9100;SDS011;4586;52.518;13.486;2022-07-23T01:07:04;3.70;;;2.42;;
9100;SDS011;4586;52.518;13.486;2022-07-23T01:11:05;2.58;;;2.10;;
9100;SDS011;4586;52.518;13.486;2022-07-23T01:15:06;3.80;;;1.95;;
9100;SDS011;4586;52.518;13.486;2022-07-23T01:19:07;3.35;;;2.25;;
9100;SDS011;4586;52.518;13.486;2022-07-23T01:23:09;3.33;;;2.00;;
9100;SDS011;4586;52.518;13.486;2022-07-23T01:27:13;2.65;;;2.10;;
9100;SDS011;4586;52.518;13.486;2022-07-23T01:31:15;3.20;;;2.20;;
9100;SDS011;4586;52.518;13.486;2022-07-23T01:35:16;5.20;;;2.50;;
9100;SDS011;4586;52.518;13.486;2022-07-23T01:39:17;3.13;;;2.10;;
9100;SDS011;4586;52.518;13.486;2022-07-23T01:43:18;2.65;;;1.98;;
9100;SDS011;4586;52.518;13.486;2022-07-23T01:47:19;3.38;;;2.10;;
9100;SDS011;4586;52.518;13.486;2022-07-23T01:51:22;2.97;;;2.28;;
9100;SDS011;4586;52.518;13.486;2022-07-23T01:55:33;2.70;;;2.30;;
9100;SDS011;4586;52.518;13.486;2022-07-23T01:59:34;3.45;;;2.35;;
9100;SDS011;4586;52.518;13.486;2022-07-23T02:03:35;3.90;;;2.25;;
9100;SDS011;4586;52.518;13.486;2022-07-23T02:07:36;2.78;;;2.42;;
9100;SDS011;4586;52.518;13.486;2022-07-23T02:11:37;3.35;;;2.30;;
9100;SDS011;4586;52.518;13.486;2022-07-23T02:15:38;3.75;;;2.63;;
9100;SDS011;4586;52.518;13.486;2022-07-23T02:19:39;2.75;;;2.47;;
9100;SDS011;4586;52.518;13.486;2022-07-23T02:23:40;4.00;;;2.33;;
9100;SDS011;4586;52.518;13.486;2022-07-23T02:27:41;2.50;;;2.30;;
9100;SDS011;4586;52.518;13.486;2022-07-23T02:31:43;2.45;;;2.25;;
9100;SDS011;4586;52.518;13.486;2022-07-23T02:35:44;3.10;;;2.15;;
9100;SDS011;4586;52.518;13.486;2022-07-23T02:39:45;3.35;;;2.42;;
9100;SDS011;4586;52.518;13.486;2022-07-23T02:43:46;2.80;;;2.28;;
9100;SDS011;4586;52.518;13.486;2022-07-23T02:47:49;2.95;;;2.20;;
9100;SDS011;4586;52.518;13.486;2022-07-23T02:51:50;2.92;;;2.20;;
9100;SDS011;4586;52.518;13.486;2022-07-23T02:55:51;2.50;;;2.30;;
9100;SDS011;4586;52.518;13.486;2022-07-23T02:59:52;2.22;;;1.75;;
9100;SDS011;4586;52.518;13.486;2022-07-23T03:03:53;2.55;;;2.17;;
9100;SDS011;4586;52.518;13.486;2022-07-23T03:07:55;3.00;;;2.40;;
9100;SDS011;4586;52.518;13.486;2022-07-23T03:11:56;2.47;;;2.03;;
9100;SDS011;4586;52.518;13.486;2022-07-23T03:15:57;3.42;;;2.50;;
9100;SDS011;4586;52.518;13.486;2022-07-23T03:19:58;3.75;;;2.17;;
9100;SDS011;4586;52.518;13.486;2022-07-23T03:24:00;2.70;;;2.33;;
9100;SDS011;4586;52.518;13.486;2022-07-23T03:28:01;3.50;;;2.63;;
9100;SDS011;4586;52.518;13.486;2022-07-23T03:32:03;5.03;;;2.58;;
9100;SDS011;4586;52.518;13.486;2022-07-23T03:36:04;3.70;;;2.50;;
9100;SDS011;4586;52.518;13.486;2022-07-23T03:40:10;3.28;;;2.20;;
9100;SDS011;4586;52.518;13.486;2022-07-23T03:44:12;3.25;;;2.50;;
9100;SDS011;4586;52.518;13.486;2022-07-23T03:48:16;3.08;;;2.38;;
9100;SDS011;4586;52.518;13.486;2022-07-23T03:52:18;3.75;;;2.25;;
9100;SDS011;4586;52.518;13.486;2022-07-23T03:56:19;2.53;;;2.33;;
9100;SDS011;4586;52.518;13.486;2022-07-23T04:00:20;4.25;;;2.22;;
9100;SDS011;4586;52.518;13.486;2022-07-23T04:04:24;2.65;;;1.98;;
9100;SDS011;4586;52.518;13.486;2022-07-23T04:08:25;3.00;;;1.80;;
9100;SDS011;4586;52.518;13.486;2022-07-23T04:12:26;2.67;;;1.70;;
9100;SDS011;4586;52.518;13.486;2022-07-23T04:16:28;4.28;;;2.00;;
9100;SDS011;4586;52.518;13.486;2022-07-23T04:20:29;1.65;;;1.52;;
9100;SDS011;4586;52.518;13.486;2022-07-23T04:24:33;2.75;;;1.50;;
9100;SDS011;4586;52.518;13.486;2022-07-23T04:28:35;1.73;;;1.60;;
9100;SDS011;4586;52.518;13.486;2022-07-23T04:32:38;2.28;;;1.73;;
9100;SDS011;4586;52.518;13.486;2022-07-23T04:36:50;2.58;;;1.75;;
9100;SDS011;4586;52.518;13.486;2022-07-23T04:40:51;2.78;;;1.55;;
9100;SDS011;4586;52.518;13.486;2022-07-23T04:44:52;2.75;;;1.27;;
9100;SDS011;4586;52.518;13.486;2022-07-23T04:48:53;3.70;;;1.70;;
9100;SDS011;4586;52.518;13.486;2022-07-23T04:52:54;2.00;;;1.45;;
9100;SDS011;4586;52.518;13.486;2022-07-23T04:56:56;2.13;;;1.17;;
9100;SDS011;4586;52.518;13.486;2022-07-23T05:00:57;1.20;;;1.10;;
9100;SDS011;4586;52.518;13.486;2022-07-23T05:04:59;1.48;;;1.30;;
9100;SDS011;4586;52.518;13.486;2022-07-23T05:09:01;1.55;;;1.40;;
9100;SDS011;4586;52.518;13.486;2022-07-23T05:13:03;1.45;;;1.35;;
9100;SDS011;4586;52.518;13.486;2022-07-23T05:17:04;2.08;;;1.60;;
9100;SDS011;4586;52.518;13.486;2022-07-23T05:21:05;4.40;;;1.52;;
9100;SDS011;4586;52.518;13.486;2022-07-23T05:25:08;3.25;;;1.67;;
9100;SDS011;4586;52.518;13.486;2022-07-23T05:29:09;2.10;;;1.20;;
9100;SDS011;4586;52.518;13.486;2022-07-23T05:33:11;1.20;;;1.10;;
9100;SDS011;4586;52.518;13.486;2022-07-23T05:37:13;1.63;;;1.27;;
9100;SDS011;4586;52.518;13.486;2022-07-23T05:41:14;1.35;;;1.25;;
9100;SDS011;4586;52.518;13.486;2022-07-23T05:45:15;1.15;;;1.02;;
9100;SDS011;4586;52.518;13.486;2022-07-23T05:49:18;2.42;;;1.45;;
9100;SDS011;4586;52.518;13.486;2022-07-23T05:53:40;1.55;;;1.30;;
9100;SDS011;4586;52.518;13.486;2022-07-23T05:57:49;2.88;;;1.35;;
9100;SDS011;4586;52.518;13.486;2022-07-23T06:01:50;1.50;;;1.25;;
9100;SDS011;4586;52.518;13.486;2022-07-23T06:05:51;2.58;;;1.15;;
9100;SDS011;4586;52.518;13.486;2022-07-23T06:09:52;3.10;;;1.13;;
9100;SDS011;4586;52.518;13.486;2022-07-23T06:13:53;1.45;;;1.30;;
9100;SDS011;4586;52.518;13.486;2022-07-23T06:17:58;1.67;;;1.20;;
9100;SDS011;4586;52.518;13.486;2022-07-23T06:21:59;2.40;;;1.30;;
9100;SDS011;4586;52.518;13.486;2022-07-23T06:26:02;1.65;;;1.40;;
9100;SDS011;4586;52.518;13.486;2022-07-23T06:30:03;1.58;;;1.20;;
9100;SDS011;4586;52.518;13.486;2022-07-23T06:34:04;1.35;;;1.17;;
9100;SDS011;4586;52.518;13.486;2022-07-23T06:38:05;1.35;;;1.17;;
9100;SDS011;4586;52.518;13.486;2022-07-23T06:42:06;1.60;;;1.17;;
9100;SDS011;4586;52.518;13.486;2022-07-23T06:46:12;1.20;;;1.10;;
9100;SDS011;4586;52.518;13.486;2022-07-23T06:50:13;2.30;;;1.40;;
9100;SDS011;4586;52.518;13.486;2022-07-23T06:54:16;2.38;;;1.48;;
9100;SDS011;4586;52.518;13.486;2022-07-23T06:58:17;5.15;;;1.63;;
9100;SDS011;4586;52.518;13.486;2022-07-23T07:02:18;2.20;;;1.60;;
9100;SDS011;4586;52.518;13.486;2022-07-23T07:06:19;2.08;;;1.60;;
9100;SDS011;4586;52.518;13.486;2022-07-23T07:10:20;1.85;;;1.42;;
9100;SDS011;4586;52.518;13.486;2022-07-23T07:14:21;4.00;;;1.30;;
9100;SDS011;4586;52.518;13.486;2022-07-23T07:18:22;1.85;;;1.50;;
9100;SDS011;4586;52.518;13.486;2022-07-23T07:22:23;1.58;;;1.40;;
9100;SDS011;4586;52.518;13.486;2022-07-23T07:26:24;1.70;;;1.40;;
9100;SDS011;4586;52.518;13.486;2022-07-23T07:30:25;1.65;;;1.55;;
9100;SDS011;4586;52.518;13.486;2022-07-23T07:34:26;2.30;;;1.30;;
9100;SDS011;4586;52.518;13.486;2022-07-23T07:38:27;1.58;;;1.30;;
9100;SDS011;4586;52.518;13.486;2022-07-23T07:42:28;1.67;;;1.48;;
9100;SDS011;4586;52.518;13.486;2022-07-23T07:46:29;2.63;;;1.77;;
9100;SDS011;4586;52.518;13.486;2022-07-23T07:50:30;2.70;;;2.28;;
9100;SDS011;4586;52.518;13.486;2022-07-23T07:54:31;3.25;;;2.38;;
9100;SDS011;4586;52.518;13.486;2022-07-23T07:58:32;2.22;;;1.58;;
9100;SDS011;4586;52.518;13.486;2022-07-23T08:02:41;1.88;;;1.60;;
9100;SDS011;4586;52.518;13.486;2022-07-23T08:06:42;1.67;;;1.48;;
9100;SDS011;4586;52.518;13.486;2022-07-23T08:10:43;2.33;;;1.63;;
9100;SDS011;4586;52.518;13.486;2022-07-23T08:14:44;4.82;;;3.20;;
9100;SDS011;4586;52.518;13.486;2022-07-23T08:18:45;2.97;;;2.40;;
9100;SDS011;4586;52.518;13.486;2022-07-23T08:26:50;1.90;;;1.67;;
9100;SDS011;4586;52.518;13.486;2022-07-23T08:30:51;1.60;;;1.42;;
9100;SDS011;4586;52.518;13.486;2022-07-23T08:34:52;1.40;;;1.30;;
9100;SDS011;4586;52.518;13.486;2022-07-23T08:38:53;1.77;;;1.55;;
9100;SDS011;4586;52.518;13.486;2022-07-23T08:42:54;2.22;;;1.55;;
9100;SDS011;4586;52.518;13.486;2022-07-23T08:46:55;2.47;;;2.10;;
9100;SDS011;4586;52.518;13.486;2022-07-23T08:50:57;7.18;;;4.95;;
9100;SDS011;4586;52.518;13.486;2022-07-23T08:54:58;5.68;;;3.47;;
9100;SDS011;4586;52.518;13.486;2022-07-23T08:58:59;3.30;;;1.55;;
9100;SDS011;4586;52.518;13.486;2022-07-23T09:03:00;2.58;;;1.30;;
9100;SDS011;4586;52.518;13.486;2022-07-23T09:07:02;2.00;;;1.45;;
9100;SDS011;4586;52.518;13.486;2022-07-23T09:11:04;3.90;;;1.60;;
9100;SDS011;4586;52.518;13.486;2022-07-23T09:15:07;4.90;;;3.35;;
9100;SDS011;4586;52.518;13.486;2022-07-23T09:19:08;4.97;;;1.88;;
9100;SDS011;4586;52.518;13.486;2022-07-23T09:23:09;3.80;;;2.22;;
9100;SDS011;4586;52.518;13.486;2022-07-23T09:27:10;1.48;;;1.38;;
9100;SDS011;4586;52.518;13.486;2022-07-23T09:31:11;2.65;;;1.42;;
9100;SDS011;4586;52.518;13.486;2022-07-23T09:35:12;1.15;;;1.05;;
9100;SDS011;4586;52.518;13.486;2022-07-23T09:39:14;3.70;;;1.58;;
9100;SDS011;4586;52.518;13.486;2022-07-23T09:43:25;1.80;;;1.38;;
9100;SDS011;4586;52.518;13.486;2022-07-23T09:47:28;3.28;;;1.65;;
9100;SDS011;4586;52.518;13.486;2022-07-23T09:51:29;1.25;;;1.15;;
9100;SDS011;4586;52.518;13.486;2022-07-23T09:55:32;3.42;;;2.05;;
9100;SDS011;4586;52.518;13.486;2022-07-23T09:59:34;2.30;;;1.67;;
9100;SDS011;4586;52.518;13.486;2022-07-23T10:03:35;3.28;;;1.90;;
9100;SDS011;4586;52.518;13.486;2022-07-23T10:08:12;1.80;;;1.60;;
9100;SDS011;4586;52.518;13.486;2022-07-23T10:12:32;1.90;;;1.65;;
9100;SDS011;4586;52.518;13.486;2022-07-23T10:16:34;3.85;;;2.17;;
9100;SDS011;4586;52.518;13.486;2022-07-23T10:20:36;2.05;;;1.80;;
9100;SDS011;4586;52.518;13.486;2022-07-23T10:29:06;3.45;;;1.52;;
9100;SDS011;4586;52.518;13.486;2022-07-23T10:33:30;3.28;;;2.08;;
9100;SDS011;4586;52.518;13.486;2022-07-23T10:37:41;1.80;;;1.60;;
9100;SDS011;4586;52.518;13.486;2022-07-23T10:41:43;1.60;;;1.30;;
9100;SDS011;4586;52.518;13.486;2022-07-23T10:45:43;3.20;;;1.60;;
9100;SDS011;4586;52.518;13.486;2022-07-23T10:49:45;4.07;;;2.60;;
9100;SDS011;4586;52.518;13.486;2022-07-23T10:57:50;2.17;;;1.52;;
9100;SDS011;4586;52.518;13.486;2022-07-23T11:01:51;1.33;;;1.23;;
9100;SDS011;4586;52.518;13.486;2022-07-23T11:05:52;3.33;;;1.88;;
9100;SDS011;4586;52.518;13.486;2022-07-23T11:09:53;1.27;;;1.17;;
9100;SDS011;4586;52.518;13.486;2022-07-23T11:13:54;2.80;;;1.80;;
9100;SDS011;4586;52.518;13.486;2022-07-23T11:21:56;1.83;;;1.45;;
9100;SDS011;4586;52.518;13.486;2022-07-23T11:25:57;1.48;;;1.17;;
9100;SDS011;4586;52.518;13.486;2022-07-23T11:29:58;1.80;;;1.30;;
9100;SDS011;4586;52.518;13.486;2022-07-23T11:34:45;1.15;;;1.08;;
9100;SDS011;4586;52.518;13.486;2022-07-23T11:38:21;1.45;;;1.33;;
9100;SDS011;4586;52.518;13.486;2022-07-23T11:42:22;2.15;;;1.70;;
9100;SDS011;4586;52.518;13.486;2022-07-23T11:46:23;1.52;;;1.42;;
9100;SDS011;4586;52.518;13.486;2022-07-23T11:50:25;2.72;;;2.47;;
9100;SDS011;4586;52.518;13.486;2022-07-23T11:54:26;2.03;;;1.52;;
9100;SDS011;4586;52.518;13.486;2022-07-23T11:58:27;1.88;;;1.45;;
9100;SDS011;4586;52.518;13.486;2022-07-23T12:02:28;2.13;;;1.58;;
9100;SDS011;4586;52.518;13.486;2022-07-23T12:06:29;2.92;;;1.42;;
9100;SDS011;4586;52.518;13.486;2022-07-23T12:10:40;1.80;;;1.25;;
9100;SDS011;4586;52.518;13.486;2022-07-23T12:14:58;1.40;;;1.30;;
9100;SDS011;4586;52.518;13.486;2022-07-23T12:18:59;4.18;;;1.73;;
9100;SDS011;4586;52.518;13.486;2022-07-23T12:23:01;3.40;;;2.92;;
9100;SDS011;4586;52.518;13.486;2022-07-23T12:27:12;2.90;;;1.88;;
9100;SDS011;4586;52.518;13.486;2022-07-23T12:31:13;5.10;;;1.58;;
9100;SDS011;4586;52.518;13.486;2022-07-23T12:35:14;2.17;;;1.65;;
9100;SDS011;4586;52.518;13.486;2022-07-23T12:39:28;2.22;;;1.63;;
9100;SDS011;4586;52.518;13.486;2022-07-23T12:43:36;2.45;;;1.45;;
9100;SDS011;4586;52.518;13.486;2022-07-23T12:52:15;1.75;;;1.63;;
9100;SDS011;4586;52.518;13.486;2022-07-23T12:56:17;1.73;;;1.63;;
9100;SDS011;4586;52.518;13.486;2022-07-23T13:00:18;3.58;;;2.60;;
9100;SDS011;4586;52.518;13.486;2022-07-23T13:04:21;2.05;;;1.48;;
9100;SDS011;4586;52.518;13.486;2022-07-23T13:08:22;2.80;;;1.65;;
9100;SDS011;4586;52.518;13.486;2022-07-23T13:12:23;1.67;;;1.55;;
9100;SDS011;4586;52.518;13.486;2022-07-23T13:16:24;2.00;;;1.40;;
9100;SDS011;4586;52.518;13.486;2022-07-23T13:20:25;1.70;;;1.55;;
9100;SDS011;4586;52.518;13.486;2022-07-23T13:24:26;1.95;;;1.80;;
9100;SDS011;4586;52.518;13.486;2022-07-23T13:28:27;2.45;;;1.77;;
9100;SDS011;4586;52.518;13.486;2022-07-23T13:32:28;1.65;;;1.33;;
9100;SDS011;4586;52.518;13.486;2022-07-23T13:36:29;1.80;;;1.60;;
9100;SDS011;4586;52.518;13.486;2022-07-23T13:40:30;1.73;;;1.35;;
9100;SDS011;4586;52.518;13.486;2022-07-23T13:44:31;2.83;;;1.83;;
9100;SDS011;4586;52.518;13.486;2022-07-23T13:48:32;1.75;;;1.23;;
9100;SDS011;4586;52.518;13.486;2022-07-23T13:52:33;1.75;;;1.42;;
9100;SDS011;4586;52.518;13.486;2022-07-23T13:56:34;2.50;;;1.52;;
9100;SDS011;4586;52.518;13.486;2022-07-23T14:00:36;1.98;;;1.58;;
9100;SDS011;4586;52.518;13.486;2022-07-23T14:04:38;3.15;;;1.50;;
9100;SDS011;4586;52.518;13.486;2022-07-23T14:08:38;2.40;;;1.40;;
9100;SDS011;4586;52.518;13.486;2022-07-23T14:12:39;1.45;;;1.35;;
9100;SDS011;4586;52.518;13.486;2022-07-23T14:16:40;2.20;;;1.60;;
9100;SDS011;4586;52.518;13.486;2022-07-23T14:20:41;1.90;;;1.52;;
9100;SDS011;4586;52.518;13.486;2022-07-23T14:24:42;4.05;;;1.67;;
9100;SDS011;4586;52.518;13.486;2022-07-23T14:28:43;1.50;;;1.40;;
9100;SDS011;4586;52.518;13.486;2022-07-23T14:32:44;1.52;;;1.42;;
9100;SDS011;4586;52.518;13.486;2022-07-23T14:36:45;1.50;;;1.23;;
9100;SDS011;4586;52.518;13.486;2022-07-23T14:40:46;1.50;;;1.40;;
9100;SDS011;4586;52.518;13.486;2022-07-23T14:44:47;1.95;;;1.45;;
9100;SDS011;4586;52.518;13.486;2022-07-23T14:48:48;1.17;;;1.13;;
9100;SDS011;4586;52.518;13.486;2022-07-23T14:52:49;1.20;;;1.10;;
9100;SDS011;4586;52.518;13.486;2022-07-23T14:56:51;1.85;;;1.30;;
9100;SDS011;4586;52.518;13.486;2022-07-23T15:00:52;1.75;;;1.42;;
9100;SDS011;4586;52.518;13.486;2022-07-23T15:04:53;2.55;;;0.98;;
9100;SDS011;4586;52.518;13.486;2022-07-23T15:08:54;1.38;;;1.27;;
9100;SDS011;4586;52.518;13.486;2022-07-23T15:12:55;1.90;;;1.10;;
9100;SDS011;4586;52.518;13.486;2022-07-23T15:16:56;2.88;;;1.27;;
9100;SDS011;4586;52.518;13.486;2022-07-23T15:20:57;2.45;;;1.08;;
9100;SDS011;4586;52.518;13.486;2022-07-23T15:24:58;1.23;;;1.13;;
9100;SDS011;4586;52.518;13.486;2022-07-23T15:28:59;1.40;;;1.27;;
9100;SDS011;4586;52.518;13.486;2022-07-23T15:33:00;1.30;;;1.10;;
9100;SDS011;4586;52.518;13.486;2022-07-23T15:37:01;2.65;;;1.10;;
9100;SDS011;4586;52.518;13.486;2022-07-23T15:41:02;0.65;;;0.65;;
9100;SDS011;4586;52.518;13.486;2022-07-23T15:45:04;1.58;;;1.10;;
9100;SDS011;4586;52.518;13.486;2022-07-23T15:49:05;1.38;;;0.90;;
9100;SDS011;4586;52.518;13.486;2022-07-23T15:53:06;0.85;;;0.85;;
9100;SDS011;4586;52.518;13.486;2022-07-23T15:57:08;0.90;;;0.90;;
9100;SDS011;4586;52.518;13.486;2022-07-23T16:01:09;0.95;;;0.82;;
9100;SDS011;4586;52.518;13.486;2022-07-23T16:05:10;1.58;;;0.82;;
9100;SDS011;4586;52.518;13.486;2022-07-23T16:09:11;1.17;;;0.90;;
9100;SDS011;4586;52.518;13.486;2022-07-23T16:13:12;2.58;;;0.90;;
9100;SDS011;4586;52.518;13.486;2022-07-23T16:17:13;2.40;;;1.08;;
9100;SDS011;4586;52.518;13.486;2022-07-23T16:21:14;1.20;;;0.98;;
9100;SDS011;4586;52.518;13.486;2022-07-23T16:25:15;1.38;;;1.05;;
9100;SDS011;4586;52.518;13.486;2022-07-23T16:29:16;0.80;;;0.80;;
9100;SDS011;4586;52.518;13.486;2022-07-23T16:33:17;1.42;;;1.00;;
9100;SDS011;4586;52.518;13.486;2022-07-23T16:37:18;1.05;;;0.93;;
9100;SDS011;4586;52.518;13.486;2022-07-23T16:41:19;2.70;;;1.27;;
9100;SDS011;4586;52.518;13.486;2022-07-23T16:45:20;2.03;;;1.33;;
9100;SDS011;4586;52.518;13.486;2022-07-23T16:49:21;1.02;;;0.93;;
9100;SDS011;4586;52.518;13.486;2022-07-23T16:53:22;0.80;;;0.75;;
9100;SDS011;4586;52.518;13.486;2022-07-23T16:57:23;0.93;;;0.82;;
9100;SDS011;4586;52.518;13.486;2022-07-23T17:01:24;0.93;;;0.88;;
9100;SDS011;4586;52.518;13.486;2022-07-23T17:05:25;0.90;;;0.73;;
9100;SDS011;4586;52.518;13.486;2022-07-23T17:09:26;1.05;;;0.90;;
9100;SDS011;4586;52.518;13.486;2022-07-23T17:13:27;1.02;;;0.80;;
9100;SDS011;4586;52.518;13.486;2022-07-23T17:17:28;0.88;;;0.73;;
9100;SDS011;4586;52.518;13.486;2022-07-23T17:21:29;1.60;;;0.80;;
9100;SDS011;4586;52.518;13.486;2022-07-23T17:25:30;0.80;;;0.80;;
9100;SDS011;4586;52.518;13.486;2022-07-23T17:29:31;2.50;;;0.95;;
9100;SDS011;4586;52.518;13.486;2022-07-23T17:33:32;0.60;;;0.57;;
9100;SDS011;4586;52.518;13.486;2022-07-23T17:37:33;0.65;;;0.65;;
9100;SDS011;4586;52.518;13.486;2022-07-23T17:41:34;4.18;;;1.20;;
9100;SDS011;4586;52.518;13.486;2022-07-23T17:45:35;0.65;;;0.65;;
9100;SDS011;4586;52.518;13.486;2022-07-23T17:49:36;0.80;;;0.80;;
9100;SDS011;4586;52.518;13.486;2022-07-23T17:53:37;0.85;;;0.70;;
9100;SDS011;4586;52.518;13.486;2022-07-23T17:57:38;1.23;;;0.90;;
9100;SDS011;4586;52.518;13.486;2022-07-23T18:01:40;0.93;;;0.82;;
9100;SDS011;4586;52.518;13.486;2022-07-23T18:05:41;0.57;;;0.57;;
9100;SDS011;4586;52.518;13.486;2022-07-23T18:09:42;0.95;;;0.85;;
9100;SDS011;4586;52.518;13.486;2022-07-23T18:13:43;1.77;;;1.30;;
9100;SDS011;4586;52.518;13.486;2022-07-23T18:17:44;1.80;;;0.70;;
9100;SDS011;4586;52.518;13.486;2022-07-23T18:21:45;1.02;;;0.93;;
9100;SDS011;4586;52.518;13.486;2022-07-23T18:25:46;0.70;;;0.70;;
9100;SDS011;4586;52.518;13.486;2022-07-23T18:29:47;1.05;;;0.73;;
9100;SDS011;4586;52.518;13.486;2022-07-23T18:33:48;0.70;;;0.70;;
9100;SDS011;4586;52.518;13.486;2022-07-23T18:37:49;0.50;;;0.50;;
9100;SDS011;4586;52.518;13.486;2022-07-23T18:41:50;0.63;;;0.63;;
9100;SDS011;4586;52.518;13.486;2022-07-23T18:45:51;0.80;;;0.73;;
9100;SDS011;4586;52.518;13.486;2022-07-23T18:49:52;4.90;;;3.75;;
9100;SDS011;4586;52.518;13.486;2022-07-23T18:53:53;2.92;;;2.58;;
9100;SDS011;4586;52.518;13.486;2022-07-23T18:57:55;0.80;;;0.77;;
9100;SDS011;4586;52.518;13.486;2022-07-23T19:01:56;0.50;;;0.50;;
9100;SDS011;4586;52.518;13.486;2022-07-23T19:05:58;0.68;;;0.50;;
9100;SDS011;4586;52.518;13.486;2022-07-23T19:09:59;1.73;;;1.38;;
9100;SDS011;4586;52.518;13.486;2022-07-23T19:14:00;0.93;;;0.65;;
9100;SDS011;4586;52.518;13.486;2022-07-23T19:18:01;0.93;;;0.80;;
9100;SDS011;4586;52.518;13.486;2022-07-23T19:22:02;0.55;;;0.55;;
9100;SDS011;4586;52.518;13.486;2022-07-23T19:26:03;0.95;;;0.70;;
9100;SDS011;4586;52.518;13.486;2022-07-23T19:30:05;1.75;;;0.95;;
9100;SDS011;4586;52.518;13.486;2022-07-23T19:34:06;1.90;;;1.65;;
9100;SDS011;4586;52.518;13.486;2022-07-23T19:38:07;0.80;;;0.80;;
9100;SDS011;4586;52.518;13.486;2022-07-23T19:42:08;0.40;;;0.40;;
9100;SDS011;4586;52.518;13.486;2022-07-23T19:46:09;11.43;;;6.60;;
9100;SDS011;4586;52.518;13.486;2022-07-23T19:50:11;7.25;;;5.13;;
9100;SDS011;4586;52.518;13.486;2022-07-23T19:54:12;2.35;;;2.03;;
9100;SDS011;4586;52.518;13.486;2022-07-23T19:58:13;1.60;;;1.38;;
9100;SDS011;4586;52.518;13.486;2022-07-23T20:02:14;1.27;;;0.75;;
9100;SDS011;4586;52.518;13.486;2022-07-23T20:06:15;0.60;;;0.60;;
9100;SDS011;4586;52.518;13.486;2022-07-23T20:10:16;0.90;;;0.90;;
9100;SDS011;4586;52.518;13.486;2022-07-23T20:14:17;0.63;;;0.60;;
9100;SDS011;4586;52.518;13.486;2022-07-23T20:18:18;0.70;;;0.70;;
9100;SDS011;4586;52.518;13.486;2022-07-23T20:22:19;0.65;;;0.65;;
9100;SDS011;4586;52.518;13.486;2022-07-23T20:26:20;0.85;;;0.75;;
9100;SDS011;4586;52.518;13.486;2022-07-23T20:30:21;0.68;;;0.57;;
9100;SDS011;4586;52.518;13.486;2022-07-23T20:34:22;3.83;;;2.75;;
9100;SDS011;4586;52.518;13.486;2022-07-23T20:38:23;2.53;;;1.73;;
9100;SDS011;4586;52.518;13.486;2022-07-23T20:42:24;1.13;;;0.75;;
9100;SDS011;4586;52.518;13.486;2022-07-23T20:46:25;0.65;;;0.65;;
9100;SDS011;4586;52.518;13.486;2022-07-23T20:50:26;0.82;;;0.65;;
9100;SDS011;4586;52.518;13.486;2022-07-23T20:54:27;2.38;;;0.95;;
9100;SDS011;4586;52.518;13.486;2022-07-23T20:58:29;0.85;;;0.77;;
9100;SDS011;4586;52.518;13.486;2022-07-23T21:02:30;6.45;;;3.85;;
9100;SDS011;4586;52.518;13.486;2022-07-23T21:06:31;1.98;;;1.00;;
9100;SDS011;4586;52.518;13.486;2022-07-23T21:10:32;1.10;;;0.73;;
9100;SDS011;4586;52.518;13.486;2022-07-23T21:14:33;0.63;;;0.60;;
9100;SDS011;4586;52.518;13.486;2022-07-23T21:18:34;0.93;;;0.70;;
9100;SDS011;4586;52.518;13.486;2022-07-23T21:22:35;1.58;;;1.00;;
9100;SDS011;4586;52.518;13.486;2022-07-23T21:26:36;0.52;;;0.52;;
9100;SDS011;4586;52.518;13.486;2022-07-23T21:30:37;0.63;;;0.60;;
9100;SDS011;4586;52.518;13.486;2022-07-23T21:34:38;0.50;;;0.50;;
9100;SDS011;4586;52.518;13.486;2022-07-23T21:38:39;1.10;;;0.77;;
9100;SDS011;4586;52.518;13.486;2022-07-23T21:42:39;1.10;;;0.75;;
9100;SDS011;4586;52.518;13.486;2022-07-23T21:46:41;0.50;;;0.50;;
9100;SDS011;4586;52.518;13.486;2022-07-23T21:50:42;1.08;;;0.50;;
9100;SDS011;4586;52.518;13.486;2022-07-23T21:54:43;0.45;;;0.45;;
9100;SDS011;4586;52.518;13.486;2022-07-23T21:58:44;0.47;;;0.45;;
9100;SDS011;4586;52.518;13.486;2022-07-23T22:02:45;0.80;;;0.52;;
9100;SDS011;4586;52.518;13.486;2022-07-23T22:06:46;0.57;;;0.57;;
9100;SDS011;4586;52.518;13.486;2022-07-23T22:10:47;2.13;;;0.60;;
9100;SDS011;4586;52.518;13.486;2022-07-23T22:14:48;0.70;;;0.70;;
9100;SDS011;4586;52.518;13.486;2022-07-23T22:18:49;1.02;;;0.60;;
9100;SDS011;4586;52.518;13.486;2022-07-23T22:22:50;0.63;;;0.57;;
9100;SDS011;4586;52.518;13.486;2022-07-23T22:26:51;0.80;;;0.63;;
9100;SDS011;4586;52.518;13.486;2022-07-23T22:30:52;1.08;;;0.98;;
9100;SDS011;4586;52.518;13.486;2022-07-23T22:34:53;2.13;;;1.27;;
9100;SDS011;4586;52.518;13.486;2022-07-23T22:38:54;0.57;;;0.55;;
9100;SDS011;4586;52.518;13.486;2022-07-23T22:42:55;1.60;;;1.10;;
9100;SDS011;4586;52.518;13.486;2022-07-23T22:46:56;0.60;;;0.50;;
9100;SDS011;4586;52.518;13.486;2022-07-23T22:50:57;0.50;;;0.47;;
9100;SDS011;4586;52.518;13.486;2022-07-23T22:54:58;0.70;;;0.70;;
9100;SDS011;4586;52.518;13.486;2022-07-23T22:58:59;0.60;;;0.60;;
9100;SDS011;4586;52.518;13.486;2022-07-23T23:03:00;1.60;;;0.57;;
9100;SDS011;4586;52.518;13.486;2022-07-23T23:07:01;0.47;;;0.47;;
9100;SDS011;4586;52.518;13.486;2022-07-23T23:11:02;0.60;;;0.60;;
9100;SDS011;4586;52.518;13.486;2022-07-23T23:15:03;0.80;;;0.68;;
9100;SDS011;4586;52.518;13.486;2022-07-23T23:19:05;0.65;;;0.50;;
9100;SDS011;4586;52.518;13.486;2022-07-23T23:23:06;0.90;;;0.57;;
9100;SDS011;4586;52.518;13.486;2022-07-23T23:27:07;1.15;;;0.60;;
9100;SDS011;4586;52.518;13.486;2022-07-23T23:31:08;0.50;;;0.50;;
9100;SDS011;4586;52.518;13.486;2022-07-23T23:35:09;0.68;;;0.57;;
9100;SDS011;4586;52.518;13.486;2022-07-23T23:39:10;1.85;;;1.58;;
9100;SDS011;4586;52.518;13.486;2022-07-23T23:43:11;0.82;;;0.80;;
9100;SDS011;4586;52.518;13.486;2022-07-23T23:47:12;0.68;;;0.68;;
9100;SDS011;4586;52.518;13.486;2022-07-23T23:51:13;0.60;;;0.60;;
9100;SDS011;4586;52.518;13.486;2022-07-23T23:55:14;0.80;;;0.57;;
9100;SDS011;4586;52.518;13.486;2022-07-23T23:59:15;0.60;;;0.52;;
